createdAt,value
2023-02-13T00:02:17.121Z,20.48
2023-02-13T00:04:43.700Z,21.70
2023-02-13T00:07:11.848Z,21.00
2023-02-13T00:09:39.196Z,21.73
2023-02-13T00:12:07.519Z,23.13
2023-02-13T00:14:39.451Z,22.90
2023-02-13T00:17:06.414Z,22.00
2023-02-13T00:19:33.154Z,22.08
2023-02-13T00:21:59.842Z,22.88
2023-02-13T00:24:26.574Z,22.27
2023-02-13T00:26:53.144Z,25.70
2023-02-13T00:29:19.790Z,24.88
2023-02-13T00:31:46.664Z,25.15
2023-02-13T00:34:14.096Z,25.15
2023-02-13T00:36:40.631Z,26.73
2023-02-13T00:39:07.244Z,27.58
2023-02-13T00:41:33.777Z,26.05
2023-02-13T00:44:00.374Z,26.52
2023-02-13T00:46:29.571Z,25.55
2023-02-13T00:48:56.157Z,25.63
2023-02-13T00:51:22.729Z,25.98
2023-02-13T00:53:51.006Z,25.42
2023-02-13T00:56:17.580Z,28.98
2023-02-13T00:58:45.138Z,27.98
2023-02-13T01:01:11.813Z,30.02
2023-02-13T01:03:38.957Z,26.85
2023-02-13T01:06:05.953Z,30.13
2023-02-13T01:08:33.258Z,29.60
2023-02-13T01:11:00.294Z,29.33
2023-02-13T01:13:27.306Z,30.95
2023-02-13T01:15:55.407Z,27.63
2023-02-13T01:18:22.727Z,26.55
2023-02-13T01:20:58.877Z,27.25
2023-02-13T01:23:25.789Z,28.50
2023-02-13T01:25:52.612Z,30.73
2023-02-13T01:28:19.174Z,28.38
2023-02-13T01:30:45.835Z,29.40
2023-02-13T01:33:12.415Z,26.05
2023-02-13T01:35:40.302Z,26.40
2023-02-13T01:38:09.152Z,26.77
2023-02-13T01:40:35.660Z,25.63
2023-02-13T01:43:02.270Z,24.42
2023-02-13T01:45:30.750Z,26.02
2023-02-13T01:48:04.104Z,25.75
2023-02-13T01:50:36.525Z,25.67
2023-02-13T01:53:19.087Z,25.75
2023-02-13T01:55:51.952Z,27.73
2023-02-13T01:58:24.912Z,24.33
2023-02-13T02:00:51.820Z,26.92
2023-02-13T02:03:45.603Z,26.88
2023-02-13T02:06:19.753Z,27.75
2023-02-13T02:08:49.109Z,26.17
2023-02-13T02:11:47.056Z,26.55
2023-02-13T02:14:14.566Z,27.83
2023-02-13T02:16:42.566Z,25.92
2023-02-13T02:19:39.286Z,26.13
2023-02-13T02:22:17.914Z,26.48
2023-02-13T02:24:56.694Z,29.38
2023-02-13T02:27:40.441Z,26.50
2023-02-13T02:30:27.429Z,28.60
2023-02-13T02:33:18.645Z,27.43
2023-02-13T02:36:10.166Z,26.77
2023-02-13T02:39:03.226Z,27.33
2023-02-13T02:42:10.479Z,27.92
2023-02-13T02:44:45.665Z,28.55
2023-02-13T02:47:40.190Z,30.13
2023-02-13T02:50:15.784Z,31.25
2023-02-13T02:53:00.499Z,33.20
2023-02-13T02:55:50.347Z,35.50
2023-02-13T02:58:56.873Z,35.45
2023-02-13T03:01:48.163Z,35.30
2023-02-13T03:04:53.625Z,40.40
2023-02-13T03:07:21.051Z,36.95
2023-02-13T03:10:10.306Z,34.97
2023-02-13T03:13:06.291Z,32.00
2023-02-13T03:15:35.603Z,33.95
2023-02-13T03:18:21.201Z,36.47
2023-02-13T03:21:28.788Z,34.47
2023-02-13T03:23:58.284Z,34.10
2023-02-13T03:26:45.687Z,33.90
2023-02-13T03:32:21.123Z,34.35
2023-02-13T03:35:15.843Z,35.10
2023-02-13T03:37:56.324Z,34.60
2023-02-13T03:41:01.228Z,34.63
2023-02-13T03:43:32.205Z,36.45
2023-02-13T03:46:02.442Z,32.15
2023-02-13T03:48:58.497Z,34.38
2023-02-13T03:51:37.406Z,30.95
2023-02-13T03:54:12.457Z,35.15
2023-02-13T03:57:01.240Z,31.70
2023-02-13T03:59:33.914Z,37.28
2023-02-13T04:02:10.710Z,32.47
2023-02-13T04:07:32.790Z,32.50
2023-02-13T04:10:13.437Z,32.60
2023-02-13T04:12:58.937Z,33.92
2023-02-13T04:15:34.898Z,37.17
2023-02-13T04:18:27.198Z,34.90
2023-02-13T04:20:53.885Z,34.85
2023-02-13T04:23:20.789Z,32.08
2023-02-13T04:25:51.047Z,33.75
2023-02-13T04:28:17.913Z,32.83
2023-02-13T04:30:44.597Z,30.73
2023-02-13T04:33:11.369Z,33.97
2023-02-13T04:35:38.010Z,29.58
2023-02-13T04:38:04.949Z,30.70
2023-02-13T04:40:31.503Z,32.63
2023-02-13T04:42:58.457Z,32.88
2023-02-13T04:45:25.104Z,33.75
2023-02-13T04:47:57.058Z,31.90
2023-02-13T04:50:25.001Z,31.75
2023-02-13T04:52:55.905Z,29.17
2023-02-13T04:55:23.752Z,32.97
2023-02-13T04:57:53.649Z,33.53
2023-02-13T05:00:25.237Z,32.50
2023-02-13T05:02:52.016Z,31.13
2023-02-13T05:05:19.487Z,34.60
2023-02-13T05:07:46.163Z,35.78
2023-02-13T05:10:13.109Z,32.88
2023-02-13T05:12:40.857Z,33.75
2023-02-13T05:15:08.208Z,32.38
2023-02-13T05:17:34.825Z,31.05
2023-02-13T05:20:01.583Z,35.88
2023-02-13T05:22:46.753Z,39.28
2023-02-13T05:25:13.262Z,31.65
2023-02-13T05:27:39.775Z,32.47
2023-02-13T05:30:07.046Z,34.20
2023-02-13T05:32:33.607Z,32.03
2023-02-13T05:35:00.744Z,32.60
2023-02-13T05:37:28.218Z,36.85
2023-02-13T05:39:54.787Z,33.15
2023-02-13T05:42:21.341Z,30.73
2023-02-13T05:44:47.968Z,32.13
2023-02-13T05:47:14.508Z,30.50
2023-02-13T05:49:41.085Z,31.83
2023-02-13T05:52:07.646Z,34.10
2023-02-13T05:54:34.332Z,33.40
2023-02-13T05:57:00.894Z,36.13
2023-02-13T05:59:27.550Z,35.55
2023-02-13T06:01:54.660Z,31.00
2023-02-13T06:04:21.286Z,36.35
2023-02-13T06:06:47.810Z,34.10
2023-02-13T06:09:14.370Z,30.20
2023-02-13T06:11:40.914Z,31.48
2023-02-13T06:14:07.556Z,33.75
2023-02-13T06:16:34.711Z,35.67
2023-02-13T06:19:01.305Z,34.72
2023-02-13T06:21:27.930Z,33.60
2023-02-13T06:23:54.616Z,32.00
2023-02-13T06:26:21.253Z,32.50
2023-02-13T06:28:47.924Z,34.05
2023-02-13T06:31:14.514Z,32.15
2023-02-13T06:33:41.113Z,29.98
2023-02-13T06:36:08.071Z,31.48
2023-02-13T06:38:34.606Z,30.13
2023-02-13T06:41:02.216Z,28.38
2023-02-13T06:43:29.006Z,29.77
2023-02-13T06:45:55.846Z,30.08
2023-02-13T06:48:23.026Z,32.83
2023-02-13T06:50:52.135Z,31.85
2023-02-13T06:53:24.700Z,31.23
2023-02-13T06:55:53.177Z,35.33
2023-02-13T06:58:21.607Z,33.75
2023-02-13T07:00:48.411Z,33.13
2023-02-13T07:03:15.053Z,31.55
2023-02-13T07:05:42.754Z,32.45
2023-02-13T07:08:10.461Z,33.78
2023-02-13T07:10:38.711Z,32.67
2023-02-13T07:13:06.390Z,30.08
2023-02-13T07:15:37.063Z,30.08
2023-02-13T07:18:05.318Z,31.00
2023-02-13T07:20:32.631Z,30.10
2023-02-13T07:23:00.648Z,33.00
2023-02-13T07:25:27.725Z,30.15
2023-02-13T07:27:54.364Z,32.10
2023-02-13T07:30:20.901Z,32.95
2023-02-13T07:32:47.406Z,31.45
2023-02-13T07:35:13.946Z,33.17
2023-02-13T07:37:40.443Z,30.20
2023-02-13T07:40:07.760Z,31.15
2023-02-13T07:42:37.115Z,31.63
2023-02-13T07:45:05.714Z,30.52
2023-02-13T07:47:34.022Z,30.60
2023-02-13T07:50:00.903Z,32.95
2023-02-13T07:52:27.382Z,32.08
2023-02-13T07:54:53.881Z,32.03
2023-02-13T07:57:20.431Z,31.63
2023-02-13T07:59:46.916Z,28.92
2023-02-13T08:02:14.700Z,28.65
2023-02-13T08:04:41.877Z,25.42
2023-02-13T08:07:08.377Z,28.00
2023-02-13T08:09:53.458Z,28.52
2023-02-13T08:12:20.012Z,27.55
2023-02-13T08:14:46.590Z,27.83
2023-02-13T08:17:13.475Z,30.38
2023-02-13T08:19:40.504Z,30.23
2023-02-13T08:22:06.970Z,28.40
2023-02-13T08:24:33.658Z,28.67
2023-02-13T08:27:00.130Z,28.88
2023-02-13T08:29:27.621Z,30.42
2023-02-13T08:31:54.175Z,31.50
2023-02-13T08:34:20.735Z,28.77
2023-02-13T08:36:47.274Z,27.80
2023-02-13T08:39:13.916Z,29.13
2023-02-13T08:41:40.518Z,35.25
2023-02-13T08:44:07.022Z,32.22
2023-02-13T08:46:33.567Z,31.30
2023-02-13T08:49:00.115Z,28.88
2023-02-13T08:51:28.244Z,29.25
2023-02-13T08:53:54.768Z,29.58
2023-02-13T08:56:21.307Z,28.05
2023-02-13T08:58:50.687Z,31.42
2023-02-13T09:01:17.434Z,29.63
2023-02-13T09:03:44.218Z,29.00
2023-02-13T09:06:10.731Z,30.80
2023-02-13T09:08:37.460Z,31.10
2023-02-13T09:11:06.523Z,29.38
2023-02-13T09:13:35.277Z,35.58
2023-02-13T09:16:08.014Z,33.08
2023-02-13T09:18:35.363Z,30.95
2023-02-13T09:21:08.103Z,36.88
2023-02-13T09:23:36.941Z,34.88
2023-02-13T09:26:05.786Z,33.25
2023-02-13T09:28:33.852Z,29.95
2023-02-13T09:31:04.632Z,30.00
2023-02-13T09:33:31.254Z,29.67
2023-02-13T09:35:58.080Z,33.58
2023-02-13T09:38:24.858Z,33.45
2023-02-13T09:40:56.428Z,31.45
2023-02-13T09:43:37.087Z,29.42
2023-02-13T09:46:18.129Z,28.80
2023-02-13T09:48:48.474Z,29.00
2023-02-13T09:51:18.323Z,30.13
2023-02-13T09:54:05.092Z,28.73
2023-02-13T09:56:50.038Z,28.85
2023-02-13T09:59:30.517Z,28.92
2023-02-13T10:02:02.960Z,29.70
2023-02-13T10:04:48.712Z,31.10
2023-02-13T10:07:36.051Z,29.40
2023-02-13T10:10:47.943Z,30.65
2023-02-13T10:13:29.800Z,29.23
2023-02-13T10:16:08.360Z,30.10
2023-02-13T10:18:45.034Z,26.08
2023-02-13T10:21:13.172Z,28.55
2023-02-13T10:23:44.846Z,29.23
2023-02-13T10:26:23.591Z,32.63
2023-02-13T10:29:18.891Z,30.70
2023-02-13T10:31:50.905Z,29.88
2023-02-13T10:34:21.681Z,29.08
2023-02-13T10:36:48.226Z,32.67
2023-02-13T10:39:31.011Z,32.00
2023-02-13T10:42:18.523Z,31.98
2023-02-13T10:47:32.620Z,33.38
2023-02-13T10:50:26.021Z,36.55
2023-02-13T10:53:14.965Z,32.90
2023-02-13T10:56:05.207Z,30.83
2023-02-13T10:59:01.962Z,31.10
2023-02-13T11:01:47.696Z,32.00
2023-02-13T11:04:17.481Z,32.08
2023-02-13T11:06:53.020Z,30.90
2023-02-13T11:09:20.089Z,31.67
2023-02-13T11:11:46.643Z,32.42
2023-02-13T11:14:24.675Z,30.30
2023-02-13T11:33:19.549Z,29.85
2023-02-13T11:35:46.836Z,30.35
2023-02-13T11:38:16.124Z,30.95
2023-02-13T11:40:46.008Z,31.38
2023-02-13T11:43:24.567Z,31.55
2023-02-13T11:46:28.146Z,31.70
2023-02-13T11:49:03.876Z,33.47
2023-02-13T11:51:45.637Z,31.42
2023-02-13T11:54:24.363Z,31.20
2023-02-13T11:57:08.567Z,32.63
2023-02-13T11:59:44.294Z,32.00
2023-02-13T12:02:16.100Z,34.17
2023-02-13T12:04:43.186Z,30.63
2023-02-13T12:07:26.594Z,32.55
2023-02-13T12:10:01.806Z,33.30
2023-02-13T12:12:44.330Z,32.50
2023-02-13T12:15:40.023Z,35.42
2023-02-13T12:18:09.460Z,33.97
2023-02-13T12:21:13.279Z,34.20
2023-02-13T12:23:51.645Z,33.47
2023-02-13T12:26:30.011Z,35.28
2023-02-13T12:29:23.788Z,34.60
2023-02-13T12:32:19.775Z,33.60
2023-02-13T12:35:08.294Z,35.90
2023-02-13T12:38:02.854Z,35.78
2023-02-13T12:41:00.411Z,34.95
2023-02-13T12:43:45.880Z,35.25
2023-02-13T12:46:17.942Z,30.90
2023-02-13T12:48:47.333Z,31.20
2023-02-13T12:51:41.418Z,33.17
2023-02-13T12:54:14.074Z,35.33
2023-02-13T12:56:55.528Z,33.97
2023-02-13T12:59:48.532Z,33.10
2023-02-13T13:02:44.882Z,34.50
2023-02-13T13:05:31.005Z,36.28
2023-02-13T13:08:18.648Z,34.30
2023-02-13T13:10:59.777Z,34.20
2023-02-13T13:13:39.319Z,35.00
2023-02-13T13:16:16.802Z,33.72
2023-02-13T13:19:15.023Z,34.28
2023-02-13T13:24:44.712Z,33.20
2023-02-13T13:27:22.147Z,33.67
2023-02-13T13:29:59.069Z,32.10
2023-02-13T13:34:53.138Z,38.03
2023-02-13T13:37:40.399Z,35.00
2023-02-13T13:40:45.928Z,34.97
2023-02-13T13:43:36.598Z,37.88
2023-02-13T13:46:17.621Z,39.13
2023-02-13T13:48:55.549Z,37.20
2023-02-13T13:51:22.634Z,36.95
2023-02-13T13:54:01.000Z,35.95
2023-02-13T13:56:53.445Z,34.70
2023-02-13T13:59:51.743Z,31.30
2023-02-13T14:02:18.358Z,30.10
2023-02-13T14:04:59.962Z,32.78
2023-02-13T14:07:26.596Z,30.10
2023-02-13T14:09:53.328Z,34.30
2023-02-13T14:12:25.750Z,35.83
2023-02-13T14:14:53.986Z,38.72
2023-02-13T14:17:45.183Z,36.22
2023-02-13T14:20:33.326Z,35.78
2023-02-13T14:23:30.172Z,35.03
2023-02-13T14:26:20.301Z,35.00
2023-02-13T14:28:49.528Z,36.90
2023-02-13T14:31:39.426Z,33.83
2023-02-13T14:34:12.164Z,35.55
2023-02-13T14:36:42.213Z,34.42
2023-02-13T14:39:25.837Z,32.78
2023-02-13T14:41:54.920Z,33.88
2023-02-13T14:44:43.361Z,34.72
2023-02-13T14:47:28.226Z,33.47
2023-02-13T14:49:57.097Z,35.75
2023-02-13T14:52:28.092Z,38.35
2023-02-13T14:55:08.814Z,37.80
2023-02-13T14:57:43.244Z,36.58
2023-02-13T15:00:34.865Z,34.40
2023-02-13T15:03:20.337Z,42.17
2023-02-13T15:05:52.507Z,37.75
2023-02-13T15:08:22.511Z,38.13
2023-02-13T15:10:52.141Z,36.58
2023-02-13T15:13:22.477Z,35.78
2023-02-13T15:15:59.819Z,37.40
2023-02-13T15:18:36.164Z,40.58
2023-02-13T15:21:03.066Z,41.25
2023-02-13T15:23:32.668Z,39.38
2023-02-13T15:26:05.031Z,38.35
2023-02-13T15:28:33.093Z,37.15
2023-02-13T15:31:00.013Z,36.55
2023-02-13T15:33:54.895Z,33.97
2023-02-13T15:36:25.457Z,36.42
2023-02-13T15:39:09.810Z,35.13
2023-02-13T15:41:43.381Z,37.83
2023-02-13T15:44:18.237Z,37.10
2023-02-13T15:46:48.135Z,35.53
2023-02-13T15:49:18.605Z,34.42
2023-02-13T15:51:46.353Z,34.60
2023-02-13T15:54:25.272Z,35.00
2023-02-13T15:56:54.512Z,37.88
2023-02-13T15:59:22.028Z,36.90
2023-02-13T16:01:50.866Z,39.45
2023-02-13T16:04:20.412Z,36.38
2023-02-13T16:06:47.615Z,44.22
2023-02-13T16:09:34.423Z,42.58
2023-02-13T16:12:07.149Z,40.92
2023-02-13T16:14:59.979Z,43.50
2023-02-13T16:17:33.549Z,39.92
2023-02-13T16:20:00.177Z,39.92
2023-02-13T16:22:35.980Z,39.28
2023-02-13T16:25:15.048Z,38.50
2023-02-13T16:27:50.809Z,37.50
2023-02-13T16:30:39.876Z,36.22
2023-02-13T16:33:19.304Z,41.47
2023-02-13T16:35:59.217Z,39.40
2023-02-13T16:38:30.792Z,45.80
2023-02-13T16:41:22.241Z,44.78
2023-02-13T16:43:48.778Z,43.80
2023-02-13T16:46:15.590Z,41.33
2023-02-13T16:48:44.623Z,46.35
2023-02-13T16:51:12.514Z,41.80
2023-02-13T16:53:40.431Z,42.33
2023-02-13T16:56:10.602Z,40.53
2023-02-13T16:58:37.297Z,43.22
2023-02-13T17:01:05.425Z,43.58
2023-02-13T17:03:32.842Z,46.25
2023-02-13T17:06:03.384Z,43.88
2023-02-13T17:08:33.052Z,44.47
2023-02-13T17:11:05.818Z,40.45
2023-02-13T17:13:33.127Z,43.88
2023-02-13T17:16:00.159Z,45.53
2023-02-13T17:18:27.493Z,46.30
2023-02-13T17:20:54.939Z,46.13
2023-02-13T17:23:24.581Z,44.92
2023-02-13T17:25:53.735Z,45.78
2023-02-13T17:28:26.312Z,45.67
2023-02-13T17:30:56.384Z,48.47
2023-02-13T17:33:25.075Z,44.20
2023-02-13T17:35:52.567Z,47.50
2023-02-13T17:38:19.768Z,47.60
2023-02-13T17:40:47.280Z,46.97
2023-02-13T17:43:15.541Z,45.25
2023-02-13T17:45:43.011Z,43.60
2023-02-13T17:48:09.997Z,45.80
2023-02-13T17:50:36.866Z,45.33
2023-02-13T17:53:06.739Z,45.72
2023-02-13T17:55:35.103Z,43.42
2023-02-13T17:58:02.090Z,46.88
2023-02-13T18:00:31.902Z,42.13
2023-02-13T18:03:00.209Z,49.28
2023-02-13T18:05:28.208Z,46.25
2023-02-13T18:07:55.480Z,47.90
2023-02-13T18:10:25.373Z,45.10
2023-02-13T18:12:53.058Z,48.50
2023-02-13T18:15:20.232Z,45.22
2023-02-13T18:17:47.510Z,43.70
2023-02-13T18:20:17.799Z,44.17
2023-02-13T18:22:44.496Z,50.70
2023-02-13T18:25:13.844Z,47.55
2023-02-13T18:27:40.539Z,47.03
2023-02-13T18:30:08.337Z,46.22
2023-02-13T18:32:35.159Z,51.70
2023-02-13T18:35:02.555Z,47.83
2023-02-13T18:37:30.090Z,51.67
2023-02-13T18:39:57.003Z,49.50
2023-02-13T18:42:23.556Z,48.28
2023-02-13T18:44:50.087Z,47.38
2023-02-13T18:47:17.442Z,48.83
2023-02-13T18:49:46.411Z,49.00
2023-02-13T18:52:12.948Z,49.53
2023-02-13T18:54:39.508Z,49.40
2023-02-13T18:57:06.449Z,47.30
2023-02-13T18:59:33.095Z,50.03
2023-02-13T19:01:59.636Z,45.47
2023-02-13T19:04:26.143Z,46.00
2023-02-13T19:06:52.680Z,44.13
2023-02-13T19:09:19.259Z,47.92
2023-02-13T19:11:47.840Z,43.75
2023-02-13T19:14:15.055Z,40.03
2023-02-13T19:16:42.274Z,44.03
2023-02-13T19:19:08.954Z,38.83
2023-02-13T19:21:38.239Z,39.20
2023-02-13T19:24:08.594Z,40.75
2023-02-13T19:26:35.584Z,40.10
2023-02-13T19:29:03.576Z,41.08
2023-02-13T19:31:31.835Z,46.42
2023-02-13T19:34:00.331Z,55.47
2023-02-13T19:36:28.783Z,72.95
2023-02-13T19:39:01.004Z,52.80
2023-02-13T19:41:28.967Z,42.47
2023-02-13T19:43:56.407Z,44.42
2023-02-13T19:46:32.626Z,39.78
2023-02-13T19:48:59.222Z,41.45
2023-02-13T19:51:31.558Z,42.28
2023-02-13T19:54:03.334Z,41.38
2023-02-13T19:56:30.921Z,41.80
2023-02-13T19:58:57.893Z,43.75
2023-02-13T20:01:26.565Z,46.30
2023-02-13T20:03:53.777Z,42.15
2023-02-13T20:06:23.817Z,46.60
2023-02-13T20:08:52.466Z,43.95
2023-02-13T20:11:21.115Z,42.00
2023-02-13T20:13:48.574Z,43.92
2023-02-13T20:16:16.931Z,43.10
2023-02-13T20:18:43.603Z,41.88
2023-02-13T20:21:12.840Z,40.08
2023-02-13T20:23:39.927Z,38.97
2023-02-13T20:26:13.704Z,41.78
2023-02-13T20:28:44.803Z,39.80
2023-02-13T20:31:14.374Z,41.53
2023-02-13T20:33:41.465Z,40.90
2023-02-13T20:36:12.613Z,41.65
2023-02-13T20:38:39.232Z,43.25
2023-02-13T20:41:15.137Z,42.50
2023-02-13T20:43:42.163Z,41.87
2023-02-13T20:46:09.669Z,43.03
2023-02-13T20:48:37.284Z,43.33
2023-02-13T20:51:07.796Z,39.10
2023-02-13T20:53:34.664Z,41.20
2023-02-13T20:56:15.510Z,41.83
2023-02-13T20:58:43.328Z,43.55
2023-02-13T21:01:15.260Z,43.08
2023-02-13T21:03:42.278Z,40.85
2023-02-13T21:06:09.983Z,39.42
2023-02-13T21:08:37.236Z,38.05
2023-02-13T21:11:05.857Z,36.35
2023-02-13T21:13:33.143Z,37.47
2023-02-13T21:16:08.435Z,40.60
2023-02-13T21:18:36.439Z,39.30
2023-02-13T21:21:03.495Z,39.67
2023-02-13T21:23:30.061Z,42.78
2023-02-13T21:25:56.675Z,40.40
2023-02-13T21:28:23.137Z,38.35
2023-02-13T21:30:49.666Z,39.42
2023-02-13T21:33:16.174Z,38.83
2023-02-13T21:38:09.208Z,35.33
2023-02-13T21:40:35.812Z,35.10
2023-02-13T21:43:02.373Z,38.50
2023-02-13T21:45:28.898Z,38.78
2023-02-13T21:47:56.524Z,37.83
2023-02-13T21:50:23.979Z,37.97
2023-02-13T21:52:50.459Z,38.13
2023-02-13T21:55:16.985Z,38.60
2023-02-13T21:57:43.480Z,35.13
2023-02-13T22:00:10.665Z,35.13
2023-02-13T22:02:40.075Z,37.63
2023-02-13T22:05:07.121Z,37.58
2023-02-13T22:07:53.567Z,34.70
2023-02-13T22:10:20.101Z,35.05
2023-02-13T22:12:50.802Z,35.47
2023-02-13T22:15:17.398Z,37.05
2023-02-13T22:17:44.014Z,39.53
2023-02-13T22:20:11.602Z,39.05
2023-02-13T22:22:38.078Z,38.58
2023-02-13T22:25:04.749Z,35.65
2023-02-13T22:27:31.743Z,40.03
2023-02-13T22:29:58.635Z,37.92
2023-02-13T22:32:25.352Z,37.30
2023-02-13T22:34:51.854Z,37.70
2023-02-13T22:39:44.798Z,37.88
2023-02-13T22:42:11.301Z,35.40
2023-02-13T22:44:37.790Z,37.30
2023-02-13T22:47:07.230Z,35.97
2023-02-13T22:49:33.847Z,36.03
2023-02-13T22:54:26.740Z,38.40
2023-02-13T22:59:19.691Z,37.40
2023-02-13T23:18:12.727Z,43.03
2023-02-13T23:20:41.355Z,39.78
2023-02-13T23:23:08.377Z,39.28
2023-02-13T23:25:36.085Z,40.92
2023-02-13T23:28:02.641Z,40.47
2023-02-13T23:30:30.166Z,40.33
2023-02-13T23:32:58.551Z,46.28
2023-02-13T23:35:26.731Z,40.80
2023-02-13T23:37:54.083Z,41.40
2023-02-13T23:40:20.830Z,41.50
2023-02-13T23:42:47.352Z,42.55
2023-02-13T23:45:13.973Z,42.03
2023-02-13T23:47:40.556Z,41.08
2023-02-13T23:50:08.422Z,43.50
2023-02-13T23:52:35.059Z,43.00
2023-02-13T23:55:01.813Z,43.05
2023-02-13T23:57:28.385Z,46.85
2023-02-13T23:59:54.966Z,41.85
